Alpena, Michigan
Current Conditions -  °F | °C
As of 4:54 AM on Sunday 23 Nov 2014 (Local Time) from KAPN Reporting Station
Haze Haze  
Wind Chill: 33°   Ceiling: 700
Heat Index: 38°   Visibility: 2.5mi
Dew Point: 38°   Wind: 7mph
Humidity: 100%   Direction: 140°SE
Pressure: 29.81"   Gusts: NA
Location:  45.06°N, 83.44°W
Report Text: KAPN 230954Z AUTO 14006KT 2 1/2SM BR OVC007 03/03 A2981 RMK AO2 CIG 006V010 SLP101 T00330033
Loading
Personal Weather Stations






























Interactive Weather Map New forecast layout! Learn more

10-Day Weather Forecast

Advertisements
Track Severe Weather on mobile